KAVP/AVP METAR and TAF weather

Enter ICAO airport designator
Station Type Date Time Source
KAVP METAR 2022/05/26 05:54 UTC NOAA

KAVP 260554Z AUTO VRB03G15KT 10SM OVC050 15/06 A3028 RMK AO2 SLP250 T01500061 10206 20150 58006


Station Type Date Time Source
KAVP Decoded METAR 2022/05/26 05:54 UTC NOAA

WILKES-BARRE/SCRANTON INTERNATIONAL , PA, United States (KAVP) 41-20N 75-44W 291M
May 26, 2022 - 01:54 AM EDT / 2022.05.26 0554 UTC
Wind: Variable at 3 MPH (3 KT) gusting to 17 MPH (15 KT):0
Visibility: 10 mile(s):0
Sky conditions: overcast
Temperature: 59.0 F (15.0 C)
Dew Point: 43.0 F (6.1 C)
Relative Humidity: 55%
Pressure (altimeter): 30.28 in. Hg (1025 hPa)
Pressure tendency: 0.02 inches (0.6 hPa) lower than three hours ago
ob: KAVP 260554Z AUTO VRB03G15KT 10SM OVC050 15/06 A3028 RMK AO2 SLP250 T01500061 10206 20150 58006
cycle: 6

Station Type Date Time Source
KAVP TAF 2022/05/26 06:22 UTC NOAA

TAF KAVP 260520Z 2606/2706 17005KT P6SM BKN050
FM261500 20010KT P6SM BKN100
FM262200 21006KT P6SM BKN025
FM270300 19005KT P6SM BKN015

Example: see airport list